createdAt,value
2023-05-05T00:00:15.646Z,70.49
2023-05-05T00:02:42.517Z,69.90
2023-05-05T00:05:09.300Z,70.47
2023-05-05T00:07:36.011Z,70.13
2023-05-05T00:10:02.786Z,71.49
2023-05-05T00:12:29.264Z,71.89
2023-05-05T00:14:55.903Z,71.82
2023-05-05T00:17:23.013Z,72.34
2023-05-05T00:19:49.623Z,71.73
2023-05-05T00:22:16.022Z,72.15
2023-05-05T00:24:42.888Z,72.76
2023-05-05T00:27:10.617Z,73.16
2023-05-05T00:29:37.016Z,73.58
2023-05-05T00:32:03.524Z,73.64
2023-05-05T00:34:29.963Z,73.50
2023-05-05T00:36:56.372Z,73.31
2023-05-05T00:39:22.871Z,73.48
2023-05-05T00:41:49.312Z,73.54
2023-05-05T00:44:15.782Z,74.49
2023-05-05T00:46:43.117Z,75.01
2023-05-05T00:49:09.971Z,75.40
2023-05-05T00:51:36.509Z,75.50
2023-05-05T00:54:02.998Z,75.97
2023-05-05T00:56:29.702Z,76.67
2023-05-05T00:58:56.395Z,77.24
2023-05-05T01:01:23.040Z,77.30
2023-05-05T01:03:49.575Z,77.13
2023-05-05T01:06:22.688Z,77.39
2023-05-05T01:08:54.996Z,77.17
2023-05-05T01:11:31.058Z,77.33
2023-05-05T01:14:16.629Z,77.44
2023-05-05T01:16:57.334Z,77.74
2023-05-05T01:19:58.782Z,77.82
2023-05-05T01:22:32.312Z,78.49
2023-05-05T01:25:17.816Z,79.14
2023-05-05T01:27:59.335Z,79.88
2023-05-05T01:30:49.944Z,80.42
2023-05-05T01:33:23.168Z,81.37
2023-05-05T01:35:56.630Z,81.85
2023-05-05T01:38:38.037Z,82.13
2023-05-05T01:41:12.944Z,82.57
2023-05-05T01:43:41.284Z,83.28
2023-05-05T01:46:08.605Z,83.21
2023-05-05T01:48:36.974Z,83.19
2023-05-05T01:51:04.891Z,83.64
2023-05-05T01:53:32.506Z,84.17
2023-05-05T01:55:59.562Z,84.12
2023-05-05T01:58:28.144Z,84.56
2023-05-05T02:00:57.060Z,84.74
2023-05-05T02:03:24.769Z,85.97
2023-05-05T02:05:53.804Z,86.58
2023-05-05T02:08:21.404Z,87.04
2023-05-05T02:10:49.774Z,87.38
2023-05-05T02:13:18.629Z,87.24
2023-05-05T02:15:46.360Z,87.21
2023-05-05T02:18:14.191Z,87.31
2023-05-05T02:20:41.080Z,87.19
2023-05-05T02:23:08.205Z,86.88
2023-05-05T02:25:43.318Z,86.89
2023-05-05T02:28:15.318Z,87.94
2023-05-05T02:30:43.421Z,89.56
2023-05-05T02:33:14.279Z,90.65
2023-05-05T02:35:42.252Z,91.32
2023-05-05T02:38:17.412Z,91.69
2023-05-05T02:40:45.747Z,92.27
2023-05-05T02:43:17.060Z,93.39
2023-05-05T02:45:43.869Z,93.61
2023-05-05T02:48:12.909Z,93.69
2023-05-05T02:50:39.371Z,93.81
2023-05-05T02:53:05.916Z,94.16
2023-05-05T02:55:50.262Z,94.49
2023-05-05T02:58:42.516Z,94.77
2023-05-05T03:01:15.501Z,95.01
2023-05-05T03:03:52.278Z,95.07
2023-05-05T03:06:22.091Z,95.06
2023-05-05T03:08:57.426Z,94.85
2023-05-05T03:11:47.716Z,94.95
2023-05-05T03:14:18.300Z,95.40
2023-05-05T03:16:46.286Z,95.46
2023-05-05T03:19:15.780Z,96.07
2023-05-05T03:21:42.384Z,95.95
2023-05-05T03:24:26.957Z,96.17
2023-05-05T03:26:53.773Z,96.02
2023-05-05T03:29:20.229Z,96.20
2023-05-05T03:31:46.808Z,96.69
2023-05-05T03:34:13.616Z,97.28
2023-05-05T03:36:40.556Z,97.92
2023-05-05T03:39:07.212Z,98.05
2023-05-05T03:41:34.113Z,97.34
2023-05-05T03:44:01.405Z,96.66
2023-05-05T03:46:27.887Z,96.96
2023-05-05T03:48:57.005Z,97.59
2023-05-05T03:51:24.502Z,97.87
2023-05-05T03:53:50.931Z,97.96
2023-05-05T03:56:17.333Z,98.20
2023-05-05T03:58:43.706Z,98.38
2023-05-05T04:01:10.150Z,98.88
2023-05-05T04:03:36.670Z,98.73
2023-05-05T04:06:03.242Z,98.31
2023-05-05T04:08:29.676Z,99.07
2023-05-05T04:10:57.383Z,99.69
2023-05-05T04:13:24.196Z,100.00
2023-05-05T04:15:50.986Z,100.00
2023-05-05T04:18:17.395Z,99.97
2023-05-05T04:20:43.935Z,100.00
2023-05-05T04:23:10.364Z,100.00
2023-05-05T04:25:37.145Z,100.00
2023-05-05T04:28:03.614Z,100.00
2023-05-05T04:30:30.616Z,99.93
2023-05-05T04:32:57.066Z,100.00
2023-05-05T04:35:23.593Z,99.58
2023-05-05T04:37:50.132Z,96.85
2023-05-05T04:40:16.660Z,92.61
2023-05-05T04:42:43.119Z,87.68
2023-05-05T04:45:10.179Z,85.12
2023-05-05T04:47:40.115Z,85.85
2023-05-05T04:50:08.058Z,86.39
2023-05-05T04:52:34.904Z,86.52
2023-05-05T04:55:01.398Z,86.57
2023-05-05T04:57:29.434Z,86.31
2023-05-05T04:59:55.979Z,85.91
2023-05-05T05:02:22.427Z,84.30
2023-05-05T05:04:48.890Z,83.33
2023-05-05T05:07:15.285Z,79.51
2023-05-05T05:09:41.809Z,77.71
2023-05-05T05:12:09.647Z,74.98
2023-05-05T05:14:40.156Z,71.63
2023-05-05T05:17:06.917Z,68.35
2023-05-05T05:19:33.400Z,67.12
2023-05-05T05:21:59.925Z,65.15
2023-05-05T05:24:26.459Z,61.09
2023-05-05T05:26:52.917Z,56.14
2023-05-05T05:29:20.354Z,53.29
2023-05-05T05:31:46.768Z,50.60
2023-05-05T05:34:15.433Z,48.54
2023-05-05T05:36:41.835Z,47.78
2023-05-05T05:39:08.350Z,46.16
2023-05-05T05:41:34.798Z,45.38
2023-05-05T05:44:01.197Z,44.59
2023-05-05T05:46:27.661Z,43.68
2023-05-05T05:48:54.110Z,43.05
2023-05-05T05:51:20.562Z,41.95
2023-05-05T05:53:47.044Z,42.48
2023-05-05T05:56:13.575Z,42.51
2023-05-05T05:58:40.571Z,41.95
2023-05-05T06:01:07.078Z,41.31
2023-05-05T06:03:33.541Z,40.25
2023-05-05T06:06:00.039Z,40.12
2023-05-05T06:08:26.845Z,40.37
2023-05-05T06:10:53.318Z,40.13
2023-05-05T06:13:19.851Z,38.81
2023-05-05T06:15:46.338Z,39.38
2023-05-05T06:18:12.837Z,38.08
2023-05-05T06:20:39.372Z,38.50
2023-05-05T06:23:05.986Z,37.24
2023-05-05T06:25:32.387Z,36.58
2023-05-05T06:27:58.807Z,36.87
2023-05-05T06:30:26.238Z,37.03
2023-05-05T06:32:54.257Z,37.05
2023-05-05T06:35:22.395Z,36.76
2023-05-05T06:37:48.792Z,37.04
2023-05-05T06:40:15.220Z,37.52
2023-05-05T06:42:41.842Z,37.86
2023-05-05T06:45:08.876Z,37.62
2023-05-05T06:47:36.014Z,37.41
2023-05-05T06:50:02.459Z,36.58
2023-05-05T06:52:28.861Z,37.12
2023-05-05T06:54:55.418Z,36.06
2023-05-05T06:57:21.851Z,36.82
2023-05-05T06:59:48.381Z,37.00
2023-05-05T07:02:15.185Z,37.39
2023-05-05T07:04:41.605Z,36.67
2023-05-05T07:07:08.072Z,37.04
2023-05-05T07:09:34.500Z,36.56
2023-05-05T07:12:00.994Z,36.99
2023-05-05T07:14:27.897Z,36.40
2023-05-05T07:16:54.463Z,36.95
2023-05-05T07:19:20.990Z,39.87
2023-05-05T07:21:47.703Z,39.36
2023-05-05T07:24:14.176Z,40.20
2023-05-05T07:26:40.839Z,38.71
2023-05-05T07:29:07.277Z,39.64
2023-05-05T07:31:33.887Z,40.75
2023-05-05T07:34:00.343Z,41.98
2023-05-05T07:36:27.883Z,40.78
2023-05-05T07:38:54.795Z,40.47
2023-05-05T07:41:21.281Z,39.42
2023-05-05T07:43:47.944Z,39.30
2023-05-05T07:46:14.806Z,39.54
2023-05-05T07:48:41.894Z,38.25
2023-05-05T07:51:09.261Z,38.49
2023-05-05T07:53:35.757Z,38.46
2023-05-05T07:56:02.456Z,40.56
2023-05-05T07:58:28.892Z,40.48
2023-05-05T08:00:55.644Z,41.08
2023-05-05T08:03:24.514Z,42.76
2023-05-05T08:05:54.066Z,44.61
2023-05-05T08:08:24.313Z,44.90
2023-05-05T08:10:51.849Z,47.20
2023-05-05T08:13:18.314Z,46.99
2023-05-05T08:15:45.332Z,46.82
2023-05-05T08:18:11.810Z,47.69
2023-05-05T08:20:38.383Z,47.10
2023-05-05T08:23:05.217Z,48.10
2023-05-05T08:25:31.701Z,46.10
2023-05-05T08:27:58.122Z,48.49
2023-05-05T08:30:24.559Z,48.92
2023-05-05T08:32:51.081Z,49.41
2023-05-05T08:35:17.776Z,51.47
2023-05-05T08:37:44.286Z,51.68
2023-05-05T08:40:14.399Z,50.10
2023-05-05T08:42:42.024Z,49.26
2023-05-05T08:45:11.523Z,50.43
2023-05-05T08:47:39.214Z,51.04
2023-05-05T08:50:06.267Z,50.74
2023-05-05T08:52:40.260Z,50.48
2023-05-05T08:55:24.056Z,51.34
2023-05-05T08:57:58.221Z,51.56
2023-05-05T09:00:26.961Z,51.71
2023-05-05T09:02:57.462Z,52.50
2023-05-05T09:05:24.857Z,52.95
2023-05-05T09:07:52.135Z,53.41
2023-05-05T09:10:18.992Z,52.70
2023-05-05T09:12:45.600Z,52.90
2023-05-05T09:15:14.337Z,53.02
2023-05-05T09:17:41.750Z,52.32
2023-05-05T09:20:10.319Z,52.51
2023-05-05T09:22:42.132Z,53.74
2023-05-05T09:25:11.054Z,54.04
2023-05-05T09:27:42.871Z,54.32
2023-05-05T09:30:12.739Z,55.47
2023-05-05T09:32:51.381Z,55.43
2023-05-05T09:35:19.492Z,56.00
2023-05-05T09:37:46.357Z,55.54
2023-05-05T09:40:15.208Z,55.66
2023-05-05T09:42:41.635Z,55.16
2023-05-05T09:45:27.529Z,53.77
2023-05-05T09:47:59.190Z,53.90
2023-05-05T09:50:30.320Z,54.58
2023-05-05T09:53:03.058Z,55.20
2023-05-05T09:55:31.296Z,55.23
2023-05-05T09:58:16.640Z,56.62
2023-05-05T10:00:43.215Z,55.45
2023-05-05T10:03:09.690Z,56.67
2023-05-05T10:05:50.700Z,57.30
2023-05-05T10:08:19.484Z,58.00
2023-05-05T10:11:06.691Z,58.51
2023-05-05T10:13:37.710Z,60.07
2023-05-05T10:16:08.312Z,62.59
2023-05-05T10:18:35.605Z,59.40
2023-05-05T10:21:04.169Z,64.09
2023-05-05T10:23:57.864Z,67.29
2023-05-05T10:26:27.512Z,70.87
2023-05-05T10:29:01.597Z,73.75
2023-05-05T10:31:45.509Z,74.13
2023-05-05T10:34:37.949Z,77.48
2023-05-05T10:37:06.681Z,79.37
2023-05-05T10:39:36.592Z,79.21
2023-05-05T10:42:03.449Z,78.34
2023-05-05T10:44:32.406Z,79.07
2023-05-05T10:47:00.248Z,79.77
2023-05-05T10:49:40.634Z,79.65
2023-05-05T10:52:17.333Z,80.41
2023-05-05T10:55:09.210Z,80.65
2023-05-05T10:57:40.456Z,82.64
2023-05-05T11:00:08.793Z,84.01
2023-05-05T11:02:36.199Z,84.68
2023-05-05T11:05:18.073Z,85.25
2023-05-05T11:07:46.357Z,86.53
2023-05-05T11:10:15.063Z,88.20
2023-05-05T11:12:54.024Z,88.75
2023-05-05T11:15:29.977Z,89.58
2023-05-05T11:17:57.394Z,90.17
2023-05-05T11:20:36.757Z,90.71
2023-05-05T11:23:03.260Z,91.35
2023-05-05T11:25:40.569Z,91.95
2023-05-05T11:28:17.281Z,92.07
2023-05-05T11:30:55.935Z,92.51
2023-05-05T11:33:36.991Z,93.20
2023-05-05T11:36:08.606Z,93.35
2023-05-05T11:38:40.781Z,94.20
2023-05-05T11:41:10.182Z,95.10
2023-05-05T11:43:36.650Z,95.58
2023-05-05T11:46:13.055Z,96.07
2023-05-05T11:48:54.520Z,96.42
2023-05-05T11:51:22.144Z,97.18
2023-05-05T11:53:49.871Z,97.76
2023-05-05T11:56:21.834Z,98.00
2023-05-05T11:58:49.619Z,98.61
2023-05-05T12:01:16.657Z,98.96
2023-05-05T12:03:45.321Z,99.45
2023-05-05T12:06:13.137Z,99.93
2023-05-05T12:08:40.779Z,99.99
2023-05-05T12:11:09.301Z,100.00
2023-05-05T12:13:35.733Z,100.00
2023-05-05T12:16:12.759Z,100.00
2023-05-05T12:18:39.876Z,100.00
2023-05-05T12:21:19.520Z,100.00
2023-05-05T12:23:46.425Z,100.00
2023-05-05T12:26:34.916Z,100.00
2023-05-05T12:29:01.610Z,100.00
2023-05-05T12:31:37.340Z,100.00
2023-05-05T12:34:04.837Z,100.00
2023-05-05T12:36:33.653Z,99.85
2023-05-05T12:39:00.412Z,99.92
2023-05-05T12:41:27.172Z,99.34
2023-05-05T12:43:58.466Z,99.57
2023-05-05T12:46:32.195Z,99.42
2023-05-05T12:49:06.520Z,99.12
2023-05-05T12:51:34.395Z,99.08
2023-05-05T12:54:08.087Z,98.91
2023-05-05T12:56:45.908Z,99.30
2023-05-05T12:59:29.247Z,99.04
2023-05-05T13:01:57.398Z,99.37
2023-05-05T13:04:25.793Z,99.44
2023-05-05T13:07:09.934Z,99.17
2023-05-05T13:09:36.790Z,99.46
2023-05-05T13:12:04.379Z,99.80
2023-05-05T13:14:34.847Z,99.87
2023-05-05T13:17:01.298Z,100.00
2023-05-05T13:19:27.789Z,100.00
2023-05-05T13:21:55.398Z,100.00
2023-05-05T13:24:34.307Z,100.00
2023-05-05T13:27:09.313Z,100.00
2023-05-05T13:29:35.822Z,100.00
2023-05-05T13:32:02.261Z,100.00
2023-05-05T13:34:29.102Z,100.00
2023-05-05T13:36:56.285Z,100.00
2023-05-05T13:39:22.805Z,100.00
2023-05-05T13:41:49.386Z,100.00
2023-05-05T13:44:15.994Z,100.00
2023-05-05T13:46:42.945Z,100.00
2023-05-05T13:49:09.406Z,100.00
2023-05-05T13:51:36.890Z,100.00
2023-05-05T13:54:03.928Z,100.00
2023-05-05T13:56:30.475Z,100.00
2023-05-05T13:58:57.303Z,100.00
2023-05-05T14:01:23.808Z,100.00
2023-05-05T14:03:50.561Z,99.72
2023-05-05T14:06:17.120Z,99.95
2023-05-05T14:08:43.584Z,99.78
2023-05-05T14:11:10.100Z,98.87
2023-05-05T14:13:36.629Z,99.68
2023-05-05T14:16:03.048Z,100.00
2023-05-05T14:18:29.690Z,99.70
2023-05-05T14:20:56.203Z,99.72
2023-05-05T14:23:22.679Z,99.95
2023-05-05T14:25:49.125Z,99.21
2023-05-05T14:28:16.072Z,98.47
2023-05-05T14:30:42.486Z,97.58
2023-05-05T14:33:08.933Z,97.56
2023-05-05T14:35:35.469Z,97.04
2023-05-05T14:38:01.876Z,97.17
2023-05-05T14:40:29.477Z,95.84
2023-05-05T14:42:55.949Z,95.03
2023-05-05T14:45:22.424Z,94.03
2023-05-05T14:47:48.952Z,93.83
2023-05-05T14:50:15.709Z,95.47
2023-05-05T14:52:44.435Z,95.89
2023-05-05T14:55:11.499Z,95.78
2023-05-05T14:57:38.847Z,97.00
2023-05-05T15:00:06.900Z,94.55
2023-05-05T15:05:00.286Z,93.30
2023-05-05T15:07:28.738Z,94.38
2023-05-05T15:09:58.701Z,93.24
2023-05-05T15:12:26.222Z,93.36
2023-05-05T15:14:52.751Z,93.53
2023-05-05T15:17:19.305Z,93.32
2023-05-05T15:19:46.130Z,93.82
2023-05-05T15:22:12.536Z,93.21
2023-05-05T15:24:39.036Z,93.56
2023-05-05T15:27:05.493Z,92.03
2023-05-05T15:29:32.241Z,92.82
2023-05-05T15:31:58.791Z,91.86
2023-05-05T15:34:26.168Z,91.40
2023-05-05T15:36:52.708Z,89.87
2023-05-05T15:39:19.250Z,90.11
2023-05-05T15:41:45.648Z,89.94
2023-05-05T15:44:12.543Z,89.14
2023-05-05T15:46:39.729Z,88.80
2023-05-05T15:49:06.297Z,86.52
2023-05-05T15:51:32.747Z,85.95
2023-05-05T15:53:59.570Z,85.99
2023-05-05T15:56:27.518Z,87.15
2023-05-05T15:58:54.348Z,87.66
2023-05-05T16:01:21.016Z,87.96
2023-05-05T16:03:47.512Z,86.16
2023-05-05T16:06:14.010Z,87.97
2023-05-05T16:08:41.093Z,88.90
2023-05-05T16:11:07.585Z,90.21
2023-05-05T16:13:34.058Z,91.16
2023-05-05T16:16:00.465Z,91.30
2023-05-05T16:18:26.918Z,89.61
2023-05-05T16:20:53.308Z,89.96
2023-05-05T16:23:19.874Z,88.10
2023-05-05T16:25:46.421Z,87.04
2023-05-05T16:28:12.964Z,83.22
2023-05-05T16:30:39.909Z,81.95
2023-05-05T16:33:06.840Z,81.07
2023-05-05T16:35:33.423Z,78.79
2023-05-05T16:37:59.871Z,79.90
2023-05-05T16:40:26.576Z,76.88
2023-05-05T16:42:53.003Z,76.15
2023-05-05T16:45:19.445Z,77.01
2023-05-05T16:47:45.902Z,78.15
2023-05-05T16:50:12.394Z,77.18
2023-05-05T16:52:38.788Z,75.87
2023-05-05T16:55:05.484Z,75.80
2023-05-05T16:57:32.007Z,76.06
2023-05-05T16:59:58.499Z,76.34
2023-05-05T17:02:24.953Z,76.91
2023-05-05T17:04:51.399Z,74.84
2023-05-05T17:07:17.778Z,76.17
2023-05-05T17:09:44.916Z,75.93
2023-05-05T17:12:11.400Z,76.20
2023-05-05T17:14:38.422Z,75.98
2023-05-05T17:17:05.083Z,74.71
2023-05-05T17:19:31.587Z,75.93
2023-05-05T17:21:57.997Z,78.62
2023-05-05T17:24:24.399Z,78.70
2023-05-05T17:26:50.954Z,77.99
2023-05-05T17:29:21.490Z,79.84
2023-05-05T17:31:48.030Z,81.34
2023-05-05T17:34:14.413Z,80.46
2023-05-05T17:36:41.169Z,80.76
2023-05-05T17:39:07.927Z,81.22
2023-05-05T17:41:34.455Z,80.84
2023-05-05T17:44:00.826Z,79.86
2023-05-05T17:46:27.797Z,81.71
2023-05-05T17:48:54.870Z,81.87
2023-05-05T17:51:21.676Z,81.90
2023-05-05T17:53:48.079Z,82.38
2023-05-05T17:56:14.459Z,82.48
2023-05-05T17:58:41.268Z,83.18
2023-05-05T18:01:07.814Z,84.94
2023-05-05T18:03:34.406Z,84.81
2023-05-05T18:06:02.256Z,85.61
2023-05-05T18:08:28.739Z,86.24
2023-05-05T18:10:55.168Z,85.60
2023-05-05T18:13:21.766Z,85.35
2023-05-05T18:15:48.216Z,86.25
2023-05-05T18:18:14.719Z,86.77
2023-05-05T18:20:41.188Z,86.87
2023-05-05T18:23:07.570Z,87.54
2023-05-05T18:25:33.964Z,86.79
2023-05-05T18:28:00.435Z,86.21
2023-05-05T18:30:26.864Z,86.56
2023-05-05T18:32:53.340Z,87.77
2023-05-05T18:35:19.837Z,87.36
2023-05-05T18:37:46.255Z,88.61
2023-05-05T18:40:12.970Z,89.48
2023-05-05T18:42:39.468Z,90.18
2023-05-05T18:45:06.501Z,89.85
2023-05-05T18:47:33.785Z,89.67
2023-05-05T18:50:00.220Z,90.53
2023-05-05T18:52:27.392Z,91.23
2023-05-05T18:54:53.809Z,91.07
2023-05-05T18:57:20.188Z,90.89
2023-05-05T18:59:46.635Z,90.75
2023-05-05T19:02:13.292Z,90.63
2023-05-05T19:04:41.314Z,90.92
2023-05-05T19:07:07.821Z,91.13
2023-05-05T19:09:34.399Z,91.34
2023-05-05T19:12:02.365Z,91.55
2023-05-05T19:14:28.888Z,91.77
2023-05-05T19:17:01.652Z,92.03
2023-05-05T19:19:28.132Z,92.36
2023-05-05T19:21:54.862Z,92.56
2023-05-05T19:24:21.348Z,92.97
2023-05-05T19:26:47.738Z,93.15
2023-05-05T19:29:14.303Z,93.52
2023-05-05T19:31:40.704Z,94.77
2023-05-05T19:34:07.470Z,95.79
2023-05-05T19:36:34.641Z,96.56
2023-05-05T19:39:02.279Z,97.47
2023-05-05T19:41:29.898Z,97.82
2023-05-05T19:43:57.307Z,98.06
2023-05-05T19:46:26.313Z,98.53
2023-05-05T19:48:52.962Z,98.58
2023-05-05T19:51:19.497Z,98.87
2023-05-05T19:53:45.960Z,98.90
2023-05-05T19:56:12.396Z,99.12
2023-05-05T19:59:01.678Z,99.52
2023-05-05T20:01:29.402Z,100.00
2023-05-05T20:03:56.546Z,100.00
2023-05-05T20:06:24.234Z,100.00
2023-05-05T20:08:50.879Z,100.00
2023-05-05T20:11:17.654Z,100.00
2023-05-05T20:13:44.226Z,100.00
2023-05-05T20:16:10.779Z,100.00
2023-05-05T20:18:37.255Z,100.00
2023-05-05T20:21:03.716Z,100.00
2023-05-05T20:23:30.390Z,100.00
2023-05-05T20:25:57.227Z,100.00
2023-05-05T20:28:23.853Z,100.00
2023-05-05T20:30:50.276Z,100.00
2023-05-05T20:33:16.648Z,100.00
2023-05-05T20:35:43.126Z,100.00
2023-05-05T20:38:10.086Z,100.00
2023-05-05T20:40:36.838Z,100.00
2023-05-05T20:43:03.277Z,100.00
2023-05-05T20:45:31.664Z,100.00
2023-05-05T20:48:00.013Z,100.00
2023-05-05T20:50:26.602Z,100.00
2023-05-05T20:52:53.020Z,100.00
2023-05-05T20:55:19.586Z,100.00
2023-05-05T20:57:46.289Z,100.00
2023-05-05T21:00:12.963Z,100.00
2023-05-05T21:02:39.497Z,100.00
2023-05-05T21:05:06.501Z,100.00
2023-05-05T21:07:35.949Z,100.00
2023-05-05T21:10:03.695Z,100.00
2023-05-05T21:12:30.669Z,100.00
2023-05-05T21:14:58.744Z,100.00
2023-05-05T21:17:26.281Z,100.00
2023-05-05T21:19:53.224Z,100.00
2023-05-05T21:22:20.733Z,100.00
2023-05-05T21:24:47.389Z,100.00
2023-05-05T21:27:13.924Z,100.00
2023-05-05T21:29:40.812Z,100.00
2023-05-05T21:32:08.664Z,100.00
2023-05-05T21:34:35.525Z,100.00
2023-05-05T21:37:02.284Z,100.00
2023-05-05T21:39:30.545Z,100.00
2023-05-05T21:41:57.018Z,100.00
2023-05-05T21:44:25.405Z,100.00
2023-05-05T21:46:55.517Z,100.00
2023-05-05T21:49:21.987Z,100.00
2023-05-05T21:51:48.742Z,100.00
2023-05-05T21:54:15.443Z,100.00
2023-05-05T21:56:41.855Z,100.00
2023-05-05T21:59:08.291Z,100.00
2023-05-05T22:01:35.086Z,100.00
2023-05-05T22:04:01.685Z,100.00
2023-05-05T22:06:28.149Z,100.00
2023-05-05T22:08:54.674Z,100.00
2023-05-05T22:11:21.312Z,100.00
2023-05-05T22:13:47.809Z,100.00
2023-05-05T22:16:18.609Z,100.00
2023-05-05T22:18:46.111Z,100.00
2023-05-05T22:21:12.649Z,100.00
2023-05-05T22:23:41.380Z,100.00
2023-05-05T22:26:08.738Z,100.00
2023-05-05T22:28:35.399Z,100.00
2023-05-05T22:31:02.511Z,100.00
2023-05-05T22:33:29.010Z,100.00
2023-05-05T22:35:55.724Z,100.00
2023-05-05T22:38:22.252Z,100.00
2023-05-05T22:40:48.743Z,100.00
2023-05-05T22:43:15.367Z,100.00
2023-05-05T22:45:42.997Z,100.00
2023-05-05T22:48:09.541Z,100.00
2023-05-05T22:50:36.076Z,100.00
2023-05-05T22:53:02.463Z,100.00
2023-05-05T22:55:28.923Z,100.00
2023-05-05T22:57:55.421Z,100.00
2023-05-05T23:00:21.912Z,100.00
2023-05-05T23:02:48.448Z,100.00
2023-05-05T23:05:14.909Z,100.00
2023-05-05T23:07:41.303Z,100.00
2023-05-05T23:10:08.745Z,100.00
2023-05-05T23:12:35.578Z,100.00
2023-05-05T23:15:02.201Z,100.00
2023-05-05T23:17:28.695Z,100.00
2023-05-05T23:19:55.154Z,100.00
2023-05-05T23:22:21.522Z,100.00
2023-05-05T23:24:48.025Z,100.00
2023-05-05T23:27:14.416Z,100.00
2023-05-05T23:29:40.818Z,100.00
2023-05-05T23:32:07.711Z,100.00
2023-05-05T23:34:34.078Z,100.00
2023-05-05T23:37:00.497Z,100.00
2023-05-05T23:39:26.899Z,100.00
2023-05-05T23:41:53.298Z,100.00
2023-05-05T23:44:19.743Z,100.00
2023-05-05T23:46:46.521Z,100.00
2023-05-05T23:49:13.010Z,100.00
2023-05-05T23:51:39.391Z,100.00
2023-05-05T23:54:05.940Z,100.00
2023-05-05T23:56:32.426Z,100.00
2023-05-05T23:58:58.851Z,100.00
